sensor_id;sensor_type;location;lat;lon;timestamp;pressure;altitude;pressure_sealevel;temperature;humidity
75460;BME280;64039;53.060;9.342;2022-12-07T00:01:34;100994.38;;;2.50;100.00
75460;BME280;64039;53.060;9.342;2022-12-07T00:04:01;100992.34;;;2.60;100.00
75460;BME280;64039;53.060;9.342;2022-12-07T00:06:36;100997.56;;;2.61;100.00
75460;BME280;64039;53.060;9.342;2022-12-07T00:09:04;100989.50;;;2.55;100.00
75460;BME280;64039;53.060;9.342;2022-12-07T00:11:30;100992.59;;;2.64;100.00
75460;BME280;64039;53.060;9.342;2022-12-07T00:13:58;100988.91;;;2.59;100.00
75460;BME280;64039;53.060;9.342;2022-12-07T00:16:26;100963.59;;;2.67;100.00
75460;BME280;64039;53.060;9.342;2022-12-07T00:18:53;100972.56;;;2.59;100.00
75460;BME280;64039;53.060;9.342;2022-12-07T00:21:21;100973.75;;;2.64;100.00
75460;BME280;64039;53.060;9.342;2022-12-07T00:23:48;100972.31;;;2.54;100.00
75460;BME280;64039;53.060;9.342;2022-12-07T00:26:24;100971.53;;;2.55;100.00
75460;BME280;64039;53.060;9.342;2022-12-07T00:28:52;100964.53;;;2.53;100.00
75460;BME280;64039;53.060;9.342;2022-12-07T00:31:20;100966.50;;;2.42;100.00
75460;BME280;64039;53.060;9.342;2022-12-07T00:33:46;100958.44;;;2.35;100.00
75460;BME280;64039;53.060;9.342;2022-12-07T00:36:14;100967.84;;;2.35;100.00
75460;BME280;64039;53.060;9.342;2022-12-07T00:38:40;100955.97;;;2.37;100.00
75460;BME280;64039;53.060;9.342;2022-12-07T00:41:13;100960.91;;;2.34;100.00
75460;BME280;64039;53.060;9.342;2022-12-07T00:43:40;100956.56;;;2.33;100.00
75460;BME280;64039;53.060;9.342;2022-12-07T00:46:07;100948.78;;;2.31;100.00
75460;BME280;64039;53.060;9.342;2022-12-07T00:48:33;100954.81;;;2.32;100.00
75460;BME280;64039;53.060;9.342;2022-12-07T00:50:59;100954.72;;;2.45;100.00
75460;BME280;64039;53.060;9.342;2022-12-07T00:53:25;100956.94;;;2.39;100.00
75460;BME280;64039;53.060;9.342;2022-12-07T00:55:50;100949.66;;;2.47;100.00
75460;BME280;64039;53.060;9.342;2022-12-07T00:58:18;100952.56;;;2.53;100.00
75460;BME280;64039;53.060;9.342;2022-12-07T01:00:43;100955.38;;;2.58;100.00
75460;BME280;64039;53.060;9.342;2022-12-07T01:03:11;100953.00;;;2.61;100.00
75460;BME280;64039;53.060;9.342;2022-12-07T01:05:38;100958.22;;;2.62;100.00
75460;BME280;64039;53.060;9.342;2022-12-07T01:08:04;100953.66;;;2.73;100.00
75460;BME280;64039;53.060;9.342;2022-12-07T01:10:30;100949.34;;;2.72;100.00
75460;BME280;64039;53.060;9.342;2022-12-07T01:12:57;100949.09;;;2.67;100.00
75460;BME280;64039;53.060;9.342;2022-12-07T01:15:22;100940.66;;;2.70;100.00
75460;BME280;64039;53.060;9.342;2022-12-07T01:17:48;100939.22;;;2.75;100.00
75460;BME280;64039;53.060;9.342;2022-12-07T01:20:14;100936.31;;;2.69;100.00
75460;BME280;64039;53.060;9.342;2022-12-07T01:22:42;100932.91;;;2.54;100.00
75460;BME280;64039;53.060;9.342;2022-12-07T01:25:09;100946.00;;;2.58;100.00
75460;BME280;64039;53.060;9.342;2022-12-07T01:27:36;100931.13;;;2.53;100.00
75460;BME280;64039;53.060;9.342;2022-12-07T01:30:04;100928.34;;;2.64;100.00
75460;BME280;64039;53.060;9.342;2022-12-07T01:32:30;100930.22;;;2.52;100.00
75460;BME280;64039;53.060;9.342;2022-12-07T01:34:55;100936.81;;;2.47;100.00
75460;BME280;64039;53.060;9.342;2022-12-07T01:37:21;100939.91;;;2.41;100.00
75460;BME280;64039;53.060;9.342;2022-12-07T01:39:51;100932.84;;;2.37;100.00
75460;BME280;64039;53.060;9.342;2022-12-07T01:42:17;100932.06;;;2.38;100.00
75460;BME280;64039;53.060;9.342;2022-12-07T01:47:45;100927.72;;;2.37;100.00
75460;BME280;64039;53.060;9.342;2022-12-07T01:50:12;100926.44;;;2.45;100.00
75460;BME280;64039;53.060;9.342;2022-12-07T01:52:41;100924.16;;;2.35;100.00
75460;BME280;64039;53.060;9.342;2022-12-07T01:55:10;100918.84;;;2.32;100.00
75460;BME280;64039;53.060;9.342;2022-12-07T01:57:40;100919.56;;;2.29;100.00
75460;BME280;64039;53.060;9.342;2022-12-07T02:00:07;100924.88;;;2.32;100.00
75460;BME280;64039;53.060;9.342;2022-12-07T02:02:41;100928.06;;;2.28;100.00
75460;BME280;64039;53.060;9.342;2022-12-07T02:05:09;100929.03;;;2.30;100.00
75460;BME280;64039;53.060;9.342;2022-12-07T02:07:36;100929.84;;;2.29;100.00
75460;BME280;64039;53.060;9.342;2022-12-07T02:12:39;100922.38;;;2.34;100.00
75460;BME280;64039;53.060;9.342;2022-12-07T02:15:06;100914.63;;;2.17;100.00
75460;BME280;64039;53.060;9.342;2022-12-07T02:31:46;100914.59;;;2.32;100.00
75460;BME280;64039;53.060;9.342;2022-12-07T02:34:25;100913.19;;;2.23;100.00
75460;BME280;64039;53.060;9.342;2022-12-07T02:37:01;100910.72;;;2.09;100.00
75460;BME280;64039;53.060;9.342;2022-12-07T02:39:55;100910.31;;;2.01;100.00
75460;BME280;64039;53.060;9.342;2022-12-07T02:42:27;100915.97;;;1.96;100.00
75460;BME280;64039;53.060;9.342;2022-12-07T02:44:55;100913.47;;;1.97;100.00
75460;BME280;64039;53.060;9.342;2022-12-07T02:47:22;100912.50;;;1.95;100.00
75460;BME280;64039;53.060;9.342;2022-12-07T02:49:52;100908.94;;;1.93;100.00
75460;BME280;64039;53.060;9.342;2022-12-07T02:52:17;100908.34;;;1.82;100.00
75460;BME280;64039;53.060;9.342;2022-12-07T02:54:43;100906.03;;;1.87;100.00
75460;BME280;64039;53.060;9.342;2022-12-07T02:57:36;100907.75;;;1.86;100.00
75460;BME280;64039;53.060;9.342;2022-12-07T03:02:58;100913.03;;;1.75;100.00
75460;BME280;64039;53.060;9.342;2022-12-07T03:05:50;100909.50;;;1.87;100.00
75460;BME280;64039;53.060;9.342;2022-12-07T03:11:33;100908.97;;;1.78;100.00
75460;BME280;64039;53.060;9.342;2022-12-07T03:14:00;100907.47;;;1.82;100.00
75460;BME280;64039;53.060;9.342;2022-12-07T03:19:08;100906.75;;;1.84;100.00
75460;BME280;64039;53.060;9.342;2022-12-07T03:21:41;100912.41;;;1.64;100.00
75460;BME280;64039;53.060;9.342;2022-12-07T03:24:16;100904.63;;;1.62;100.00
75460;BME280;64039;53.060;9.342;2022-12-07T03:26:47;100908.41;;;1.54;100.00
75460;BME280;64039;53.060;9.342;2022-12-07T03:29:28;100908.50;;;1.70;100.00
75460;BME280;64039;53.060;9.342;2022-12-07T03:32:01;100911.59;;;1.65;100.00
75460;BME280;64039;53.060;9.342;2022-12-07T03:34:35;100908.34;;;1.67;100.00
75460;BME280;64039;53.060;9.342;2022-12-07T03:37:07;100907.72;;;1.71;100.00
75460;BME280;64039;53.060;9.342;2022-12-07T03:42:23;100916.41;;;1.73;100.00
75460;BME280;64039;53.060;9.342;2022-12-07T03:44:49;100913.31;;;1.79;100.00
75460;BME280;64039;53.060;9.342;2022-12-07T03:47:27;100915.31;;;1.85;100.00
75460;BME280;64039;53.060;9.342;2022-12-07T03:50:12;100914.97;;;1.79;100.00
75460;BME280;64039;53.060;9.342;2022-12-07T03:53:11;100914.66;;;1.87;100.00
75460;BME280;64039;53.060;9.342;2022-12-07T03:55:37;100915.09;;;1.80;100.00
75460;BME280;64039;53.060;9.342;2022-12-07T03:58:09;100918.19;;;1.75;100.00
75460;BME280;64039;53.060;9.342;2022-12-07T04:00:35;100910.13;;;1.83;100.00
75460;BME280;64039;53.060;9.342;2022-12-07T04:03:01;100907.91;;;1.89;100.00
75460;BME280;64039;53.060;9.342;2022-12-07T04:05:26;100897.28;;;1.98;100.00
75460;BME280;64039;53.060;9.342;2022-12-07T04:07:51;100909.84;;;2.09;100.00
75460;BME280;64039;53.060;9.342;2022-12-07T04:10:17;100909.16;;;1.96;100.00
75460;BME280;64039;53.060;9.342;2022-12-07T04:12:43;100903.66;;;2.05;100.00
75460;BME280;64039;53.060;9.342;2022-12-07T04:15:09;100909.75;;;2.07;100.00
75460;BME280;64039;53.060;9.342;2022-12-07T04:17:35;100913.31;;;2.09;100.00
75460;BME280;64039;53.060;9.342;2022-12-07T04:20:01;100909.94;;;2.10;100.00
75460;BME280;64039;53.060;9.342;2022-12-07T04:22:26;100899.75;;;2.12;100.00
75460;BME280;64039;53.060;9.342;2022-12-07T04:24:52;100899.13;;;2.16;100.00
75460;BME280;64039;53.060;9.342;2022-12-07T04:27:17;100899.13;;;2.16;100.00
75460;BME280;64039;53.060;9.342;2022-12-07T04:29:43;100904.88;;;2.12;100.00
75460;BME280;64039;53.060;9.342;2022-12-07T04:32:08;100897.44;;;2.16;100.00
75460;BME280;64039;53.060;9.342;2022-12-07T04:34:34;100905.31;;;2.19;100.00
75460;BME280;64039;53.060;9.342;2022-12-07T04:36:59;100900.44;;;2.24;100.00
75460;BME280;64039;53.060;9.342;2022-12-07T04:39:29;100903.75;;;2.22;100.00
75460;BME280;64039;53.060;9.342;2022-12-07T04:41:55;100915.84;;;2.24;100.00
75460;BME280;64039;53.060;9.342;2022-12-07T04:44:23;100923.47;;;2.23;100.00
75460;BME280;64039;53.060;9.342;2022-12-07T04:46:49;100915.59;;;2.19;100.00
75460;BME280;64039;53.060;9.342;2022-12-07T04:49:15;100915.25;;;2.13;100.00
75460;BME280;64039;53.060;9.342;2022-12-07T04:51:42;100912.59;;;2.12;100.00
75460;BME280;64039;53.060;9.342;2022-12-07T04:54:08;100914.63;;;2.17;100.00
75460;BME280;64039;53.060;9.342;2022-12-07T04:56:33;100915.34;;;2.15;100.00
75460;BME280;64039;53.060;9.342;2022-12-07T04:59:00;100925.25;;;2.09;100.00
75460;BME280;64039;53.060;9.342;2022-12-07T05:01:26;100925.00;;;2.04;100.00
75460;BME280;64039;53.060;9.342;2022-12-07T05:03:52;100923.66;;;2.11;100.00
75460;BME280;64039;53.060;9.342;2022-12-07T05:06:17;100916.31;;;2.17;100.00
75460;BME280;64039;53.060;9.342;2022-12-07T05:08:44;100918.88;;;2.17;100.00
75460;BME280;64039;53.060;9.342;2022-12-07T05:11:10;100917.00;;;2.14;100.00
75460;BME280;64039;53.060;9.342;2022-12-07T05:13:55;100911.00;;;1.99;100.00
75460;BME280;64039;53.060;9.342;2022-12-07T05:16:21;100911.91;;;1.99;100.00
75460;BME280;64039;53.060;9.342;2022-12-07T05:18:46;100916.56;;;1.92;100.00
75460;BME280;64039;53.060;9.342;2022-12-07T05:21:12;100908.88;;;1.92;100.00
75460;BME280;64039;53.060;9.342;2022-12-07T05:23:37;100906.94;;;1.87;100.00
75460;BME280;64039;53.060;9.342;2022-12-07T05:26:03;100907.38;;;1.95;100.00
75460;BME280;64039;53.060;9.342;2022-12-07T05:28:28;100910.53;;;2.06;100.00
75460;BME280;64039;53.060;9.342;2022-12-07T05:30:54;100906.75;;;1.99;100.00
75460;BME280;64039;53.060;9.342;2022-12-07T05:33:19;100897.75;;;1.91;100.00
75460;BME280;64039;53.060;9.342;2022-12-07T05:35:45;100906.50;;;1.80;100.00
75460;BME280;64039;53.060;9.342;2022-12-07T05:38:10;100907.03;;;1.89;100.00
75460;BME280;64039;53.060;9.342;2022-12-07T05:40:36;100904.72;;;1.94;100.00
75460;BME280;64039;53.060;9.342;2022-12-07T05:43:02;100898.53;;;1.90;100.00
75460;BME280;64039;53.060;9.342;2022-12-07T05:45:28;100899.41;;;2.06;100.00
75460;BME280;64039;53.060;9.342;2022-12-07T05:47:53;100891.88;;;1.94;100.00
75460;BME280;64039;53.060;9.342;2022-12-07T05:50:19;100890.38;;;1.97;100.00
75460;BME280;64039;53.060;9.342;2022-12-07T05:52:44;100885.31;;;1.99;100.00
75460;BME280;64039;53.060;9.342;2022-12-07T05:55:10;100897.09;;;1.95;100.00
75460;BME280;64039;53.060;9.342;2022-12-07T05:57:35;100896.50;;;1.84;100.00
75460;BME280;64039;53.060;9.342;2022-12-07T06:00:03;100890.84;;;1.90;100.00
75460;BME280;64039;53.060;9.342;2022-12-07T06:02:28;100895.06;;;1.89;100.00
75460;BME280;64039;53.060;9.342;2022-12-07T06:04:54;100890.72;;;2.03;100.00
75460;BME280;64039;53.060;9.342;2022-12-07T06:07:19;100896.38;;;1.98;100.00
75460;BME280;64039;53.060;9.342;2022-12-07T06:09:45;100901.91;;;2.04;100.00
75460;BME280;64039;53.060;9.342;2022-12-07T06:12:11;100900.31;;;1.91;100.00
75460;BME280;64039;53.060;9.342;2022-12-07T06:14:56;100916.91;;;1.98;100.00
75460;BME280;64039;53.060;9.342;2022-12-07T06:17:21;100916.94;;;1.83;100.00
75460;BME280;64039;53.060;9.342;2022-12-07T06:19:48;100924.72;;;1.84;100.00
75460;BME280;64039;53.060;9.342;2022-12-07T06:22:14;100942.16;;;1.75;100.00
75460;BME280;64039;53.060;9.342;2022-12-07T06:24:41;100933.03;;;1.65;100.00
75460;BME280;64039;53.060;9.342;2022-12-07T06:27:07;100924.50;;;1.51;100.00
75460;BME280;64039;53.060;9.342;2022-12-07T06:29:32;100918.41;;;1.49;100.00
75460;BME280;64039;53.060;9.342;2022-12-07T06:31:58;100918.13;;;1.45;100.00
75460;BME280;64039;53.060;9.342;2022-12-07T06:34:25;100912.19;;;1.46;100.00
75460;BME280;64039;53.060;9.342;2022-12-07T06:36:51;100881.25;;;1.57;100.00
75460;BME280;64039;53.060;9.342;2022-12-07T06:39:19;100882.69;;;1.52;100.00
75460;BME280;64039;53.060;9.342;2022-12-07T06:41:45;100888.31;;;1.47;100.00
75460;BME280;64039;53.060;9.342;2022-12-07T06:44:11;100895.94;;;1.45;100.00
75460;BME280;64039;53.060;9.342;2022-12-07T06:46:36;100896.47;;;1.39;100.00
75460;BME280;64039;53.060;9.342;2022-12-07T06:49:03;100897.72;;;1.46;100.00
75460;BME280;64039;53.060;9.342;2022-12-07T06:51:29;100896.47;;;1.39;100.00
75460;BME280;64039;53.060;9.342;2022-12-07T06:53:55;100894.97;;;1.58;100.00
75460;BME280;64039;53.060;9.342;2022-12-07T06:56:21;100890.81;;;1.45;100.00
75460;BME280;64039;53.060;9.342;2022-12-07T06:58:48;100891.44;;;1.56;100.00
75460;BME280;64039;53.060;9.342;2022-12-07T07:01:16;100890.44;;;1.54;100.00
75460;BME280;64039;53.060;9.342;2022-12-07T07:03:42;100888.44;;;1.63;100.00
75460;BME280;64039;53.060;9.342;2022-12-07T07:06:09;100895.06;;;1.60;100.00
75460;BME280;64039;53.060;9.342;2022-12-07T07:08:36;100896.56;;;1.56;100.00
75460;BME280;64039;53.060;9.342;2022-12-07T07:11:02;100898.16;;;1.54;100.00
75460;BME280;64039;53.060;9.342;2022-12-07T07:13:28;100892.84;;;1.51;100.00
75460;BME280;64039;53.060;9.342;2022-12-07T07:15:54;100894.53;;;1.50;100.00
75460;BME280;64039;53.060;9.342;2022-12-07T07:18:20;100896.28;;;1.51;100.00
75460;BME280;64039;53.060;9.342;2022-12-07T07:20:46;100897.72;;;1.61;100.00
75460;BME280;64039;53.060;9.342;2022-12-07T07:23:11;100905.94;;;1.55;100.00
75460;BME280;64039;53.060;9.342;2022-12-07T07:25:37;100909.03;;;1.65;100.00
75460;BME280;64039;53.060;9.342;2022-12-07T07:28:02;100910.22;;;1.70;100.00
75460;BME280;64039;53.060;9.342;2022-12-07T07:30:28;100922.41;;;1.74;100.00
75460;BME280;64039;53.060;9.342;2022-12-07T07:32:58;100918.78;;;1.70;100.00
75460;BME280;64039;53.060;9.342;2022-12-07T07:35:24;100903.19;;;1.52;100.00
75460;BME280;64039;53.060;9.342;2022-12-07T07:37:50;100907.25;;;1.64;100.00
75460;BME280;64039;53.060;9.342;2022-12-07T07:40:16;100910.66;;;1.63;100.00
75460;BME280;64039;53.060;9.342;2022-12-07T07:42:41;100913.47;;;1.52;100.00
75460;BME280;64039;53.060;9.342;2022-12-07T07:45:07;100911.88;;;1.54;100.00
75460;BME280;64039;53.060;9.342;2022-12-07T07:47:33;100914.06;;;1.48;100.00
75460;BME280;64039;53.060;9.342;2022-12-07T07:49:59;100905.31;;;1.60;100.00
75460;BME280;64039;53.060;9.342;2022-12-07T07:52:24;100908.59;;;1.57;100.00
75460;BME280;64039;53.060;9.342;2022-12-07T07:54:50;100910.22;;;1.70;100.00
75460;BME280;64039;53.060;9.342;2022-12-07T07:57:18;100914.97;;;1.64;100.00
75460;BME280;64039;53.060;9.342;2022-12-07T07:59:44;100919.13;;;1.62;100.00
75460;BME280;64039;53.060;9.342;2022-12-07T08:02:14;100917.00;;;1.54;100.00
75460;BME280;64039;53.060;9.342;2022-12-07T08:04:40;100921.25;;;1.69;100.00
75460;BME280;64039;53.060;9.342;2022-12-07T08:07:05;100924.28;;;1.62;100.00
75460;BME280;64039;53.060;9.342;2022-12-07T08:09:30;100916.09;;;1.54;100.00
75460;BME280;64039;53.060;9.342;2022-12-07T08:11:57;100926.63;;;1.59;100.00
75460;BME280;64039;53.060;9.342;2022-12-07T08:14:22;100925.03;;;1.46;100.00
75460;BME280;64039;53.060;9.342;2022-12-07T08:16:48;100926.72;;;1.60;100.00
75460;BME280;64039;53.060;9.342;2022-12-07T08:19:14;100928.16;;;1.70;100.00
75460;BME280;64039;53.060;9.342;2022-12-07T08:21:39;100932.41;;;1.84;100.00
75460;BME280;64039;53.060;9.342;2022-12-07T08:24:05;100926.41;;;1.84;100.00
75460;BME280;64039;53.060;9.342;2022-12-07T08:26:31;100927.38;;;1.71;100.00
75460;BME280;64039;53.060;9.342;2022-12-07T08:28:56;100920.00;;;1.62;100.00
75460;BME280;64039;53.060;9.342;2022-12-07T08:31:21;100920.28;;;1.67;100.00
75460;BME280;64039;53.060;9.342;2022-12-07T08:33:48;100922.59;;;1.77;100.00
75460;BME280;64039;53.060;9.342;2022-12-07T08:36:14;100921.34;;;1.70;100.00
75460;BME280;64039;53.060;9.342;2022-12-07T08:38:41;100917.91;;;1.70;100.00
75460;BME280;64039;53.060;9.342;2022-12-07T08:41:07;100920.75;;;1.75;100.00
75460;BME280;64039;53.060;9.342;2022-12-07T08:43:34;100918.59;;;1.82;100.00
75460;BME280;64039;53.060;9.342;2022-12-07T08:48:33;100910.38;;;1.88;100.00
75460;BME280;64039;53.060;9.342;2022-12-07T08:51:01;100912.88;;;1.86;100.00
75460;BME280;64039;53.060;9.342;2022-12-07T08:53:27;100914.47;;;1.99;100.00
75460;BME280;64039;53.060;9.342;2022-12-07T08:55:53;100916.03;;;1.82;100.00
75460;BME280;64039;53.060;9.342;2022-12-07T08:58:18;100923.94;;;2.00;100.00
75460;BME280;64039;53.060;9.342;2022-12-07T09:00:44;100920.19;;;1.95;100.00
75460;BME280;64039;53.060;9.342;2022-12-07T09:03:09;100931.91;;;2.05;100.00
75460;BME280;64039;53.060;9.342;2022-12-07T09:05:35;100934.09;;;1.99;100.00
75460;BME280;64039;53.060;9.342;2022-12-07T09:08:01;100922.06;;;1.98;100.00
75460;BME280;64039;53.060;9.342;2022-12-07T09:10:28;100931.38;;;1.81;100.00
75460;BME280;64039;53.060;9.342;2022-12-07T09:12:54;100930.66;;;1.83;100.00
75460;BME280;64039;53.060;9.342;2022-12-07T09:15:20;100925.97;;;1.91;100.00
75460;BME280;64039;53.060;9.342;2022-12-07T09:17:45;100929.06;;;2.00;100.00
75460;BME280;64039;53.060;9.342;2022-12-07T09:20:11;100933.94;;;1.96;100.00
75460;BME280;64039;53.060;9.342;2022-12-07T09:22:37;100933.13;;;2.12;100.00
75460;BME280;64039;53.060;9.342;2022-12-07T09:25:04;100932.19;;;2.10;100.00
75460;BME280;64039;53.060;9.342;2022-12-07T09:27:30;100929.84;;;2.14;100.00
75460;BME280;64039;53.060;9.342;2022-12-07T09:29:55;100931.28;;;2.24;100.00
75460;BME280;64039;53.060;9.342;2022-12-07T09:32:21;100925.50;;;2.28;100.00
75460;BME280;64039;53.060;9.342;2022-12-07T09:34:47;100933.13;;;2.27;100.00
75460;BME280;64039;53.060;9.342;2022-12-07T09:37:12;100924.69;;;2.29;100.00
75460;BME280;64039;53.060;9.342;2022-12-07T09:39:38;100934.00;;;2.27;100.00
75460;BME280;64039;53.060;9.342;2022-12-07T09:42:05;100933.81;;;2.39;100.00
75460;BME280;64039;53.060;9.342;2022-12-07T09:44:32;100944.50;;;2.47;100.00
75460;BME280;64039;53.060;9.342;2022-12-07T09:46:58;100928.31;;;2.33;100.00
75460;BME280;64039;53.060;9.342;2022-12-07T09:49:28;100939.72;;;2.53;100.00
75460;BME280;64039;53.060;9.342;2022-12-07T09:52:48;100934.19;;;2.30;100.00
75460;BME280;64039;53.060;9.342;2022-12-07T09:54:49;100940.81;;;2.42;100.00
75460;BME280;64039;53.060;9.342;2022-12-07T09:57:15;100934.06;;;2.44;100.00
75460;BME280;64039;53.060;9.342;2022-12-07T09:59:43;100937.34;;;2.41;100.00
75460;BME280;64039;53.060;9.342;2022-12-07T10:02:33;100944.09;;;2.39;100.00
75460;BME280;64039;53.060;9.342;2022-12-07T10:04:59;100936.13;;;2.34;100.00
75460;BME280;64039;53.060;9.342;2022-12-07T10:07:26;100937.47;;;2.28;100.00
75460;BME280;64039;53.060;9.342;2022-12-07T10:09:52;100928.31;;;2.33;100.00
75460;BME280;64039;53.060;9.342;2022-12-07T10:12:18;100933.97;;;2.42;100.00
75460;BME280;64039;53.060;9.342;2022-12-07T10:14:59;100926.53;;;2.47;100.00
75460;BME280;64039;53.060;9.342;2022-12-07T10:17:32;100922.97;;;2.60;100.00
75460;BME280;64039;53.060;9.342;2022-12-07T10:22:37;100916.03;;;2.59;100.00
75460;BME280;64039;53.060;9.342;2022-12-07T10:25:19;100914.63;;;2.64;100.00
75460;BME280;64039;53.060;9.342;2022-12-07T10:28:00;100916.88;;;2.74;100.00
75460;BME280;64039;53.060;9.342;2022-12-07T10:30:29;100907.78;;;2.96;100.00
75460;BME280;64039;53.060;9.342;2022-12-07T10:32:56;100910.59;;;3.17;100.00
75460;BME280;64039;53.060;9.342;2022-12-07T10:37:48;100904.97;;;3.08;100.00
75460;BME280;64039;53.060;9.342;2022-12-07T10:40:34;100905.09;;;3.27;100.00
75460;BME280;64039;53.060;9.342;2022-12-07T10:43:05;100897.31;;;3.26;100.00
75460;BME280;64039;53.060;9.342;2022-12-07T10:45:32;100900.13;;;3.30;100.00
75460;BME280;64039;53.060;9.342;2022-12-07T11:06:57;100878.44;;;3.25;100.00
75460;BME280;64039;53.060;9.342;2022-12-07T11:09:34;100887.50;;;3.35;100.00
75460;BME280;64039;53.060;9.342;2022-12-07T11:12:10;100889.75;;;3.45;100.00
75460;BME280;64039;53.060;9.342;2022-12-07T11:14:55;100875.69;;;3.22;100.00
75460;BME280;64039;53.060;9.342;2022-12-07T11:17:26;100876.09;;;3.30;100.00
75460;BME280;64039;53.060;9.342;2022-12-07T11:28:32;100863.84;;;3.42;100.00
75460;BME280;64039;53.060;9.342;2022-12-07T11:33:44;100860.75;;;3.66;100.00
75460;BME280;64039;53.060;9.342;2022-12-07T11:38:43;100849.84;;;4.06;100.00
75460;BME280;64039;53.060;9.342;2022-12-07T11:41:12;100863.38;;;4.02;100.00
75460;BME280;64039;53.060;9.342;2022-12-07T11:46:17;100864.63;;;3.92;100.00
75460;BME280;64039;53.060;9.342;2022-12-07T11:48:48;100862.56;;;3.85;100.00
75460;BME280;64039;53.060;9.342;2022-12-07T11:51:18;100869.66;;;3.73;100.00
75460;BME280;64039;53.060;9.342;2022-12-07T11:53:49;100868.41;;;3.65;100.00
75460;BME280;64039;53.060;9.342;2022-12-07T11:56:20;100864.97;;;3.64;100.00
75460;BME280;64039;53.060;9.342;2022-12-07T11:58:51;100869.53;;;3.53;100.00
75460;BME280;64039;53.060;9.342;2022-12-07T12:06:34;100850.75;;;3.38;100.00
75460;BME280;64039;53.060;9.342;2022-12-07T12:09:26;100853.50;;;3.41;100.00
75460;BME280;64039;53.060;9.342;2022-12-07T12:12:42;100853.03;;;3.32;100.00
75460;BME280;64039;53.060;9.342;2022-12-07T12:21:14;100840.13;;;3.48;100.00
75460;BME280;64039;53.060;9.342;2022-12-07T12:23:48;100831.88;;;3.37;100.00
75460;BME280;64039;53.060;9.342;2022-12-07T12:26:21;100834.28;;;3.34;100.00
75460;BME280;64039;53.060;9.342;2022-12-07T12:33:52;100824.16;;;3.37;100.00
75460;BME280;64039;53.060;9.342;2022-12-07T12:36:23;100823.84;;;3.31;100.00
75460;BME280;64039;53.060;9.342;2022-12-07T12:51:50;100826.09;;;3.08;100.00
75460;BME280;64039;53.060;9.342;2022-12-07T12:54:30;100819.63;;;2.98;100.00
75460;BME280;64039;53.060;9.342;2022-12-07T12:57:30;100825.75;;;2.84;100.00
75460;BME280;64039;53.060;9.342;2022-12-07T12:59:58;100823.47;;;2.74;100.00
75460;BME280;64039;53.060;9.342;2022-12-07T13:02:28;100822.81;;;2.61;100.00
75460;BME280;64039;53.060;9.342;2022-12-07T13:07:52;100833.19;;;2.63;100.00
75460;BME280;64039;53.060;9.342;2022-12-07T13:10:33;100831.88;;;2.38;100.00
75460;BME280;64039;53.060;9.342;2022-12-07T13:21:42;100808.56;;;2.03;100.00
75460;BME280;64039;53.060;9.342;2022-12-07T13:29:15;100802.56;;;2.03;100.00
75460;BME280;64039;53.060;9.342;2022-12-07T13:31:47;100804.44;;;1.91;100.00
75460;BME280;64039;53.060;9.342;2022-12-07T13:34:42;100812.59;;;1.83;100.00
75460;BME280;64039;53.060;9.342;2022-12-07T13:37:24;100805.06;;;1.86;100.00
75460;BME280;64039;53.060;9.342;2022-12-07T13:39:58;100807.72;;;1.73;100.00
75460;BME280;64039;53.060;9.342;2022-12-07T13:42:26;100814.63;;;1.89;100.00
75460;BME280;64039;53.060;9.342;2022-12-07T13:44:55;100817.16;;;2.04;100.00
75460;BME280;64039;53.060;9.342;2022-12-07T13:47:31;100811.97;;;2.19;100.00
75460;BME280;64039;53.060;9.342;2022-12-07T13:50:01;100809.59;;;2.22;100.00
75460;BME280;64039;53.060;9.342;2022-12-07T13:52:30;100821.19;;;2.15;100.00
75460;BME280;64039;53.060;9.342;2022-12-07T13:55:01;100826.91;;;2.10;100.00
75460;BME280;64039;53.060;9.342;2022-12-07T13:57:29;100821.59;;;2.07;100.00
75460;BME280;64039;53.060;9.342;2022-12-07T13:59:56;100821.31;;;2.02;100.00
75460;BME280;64039;53.060;9.342;2022-12-07T14:02:30;100817.16;;;2.04;100.00
75460;BME280;64039;53.060;9.342;2022-12-07T14:05:26;100819.09;;;1.93;100.00
75460;BME280;64039;53.060;9.342;2022-12-07T14:10:35;100817.09;;;1.87;100.00
75460;BME280;64039;53.060;9.342;2022-12-07T14:13:02;100817.53;;;1.95;100.00
75460;BME280;64039;53.060;9.342;2022-12-07T14:15:33;100810.25;;;2.03;100.00
75460;BME280;64039;53.060;9.342;2022-12-07T14:18:01;100814.41;;;2.01;100.00
75460;BME280;64039;53.060;9.342;2022-12-07T14:20:37;100806.72;;;1.86;100.00
75460;BME280;64039;53.060;9.342;2022-12-07T14:23:04;100815.00;;;2.12;100.00
75460;BME280;64039;53.060;9.342;2022-12-07T14:25:45;100817.06;;;2.02;100.00
75460;BME280;64039;53.060;9.342;2022-12-07T14:28:32;100826.31;;;1.84;100.00
75460;BME280;64039;53.060;9.342;2022-12-07T14:30:59;100824.53;;;1.83;100.00
75460;BME280;64039;53.060;9.342;2022-12-07T14:33:25;100832.59;;;1.74;100.00
75460;BME280;64039;53.060;9.342;2022-12-07T14:35:51;100831.78;;;1.75;100.00
75460;BME280;64039;53.060;9.342;2022-12-07T14:38:24;100830.47;;;1.67;100.00
75460;BME280;64039;53.060;9.342;2022-12-07T14:40:52;100819.16;;;1.63;100.00
75460;BME280;64039;53.060;9.342;2022-12-07T14:43:18;100816.06;;;1.69;100.00
75460;BME280;64039;53.060;9.342;2022-12-07T14:45:45;100803.88;;;1.50;100.00
75460;BME280;64039;53.060;9.342;2022-12-07T14:48:12;100802.50;;;1.56;100.00
75460;BME280;64039;53.060;9.342;2022-12-07T14:50:42;100803.69;;;1.62;100.00
75460;BME280;64039;53.060;9.342;2022-12-07T14:53:14;100793.75;;;1.68;100.00
75460;BME280;64039;53.060;9.342;2022-12-07T14:55:40;100801.53;;;1.69;100.00
75460;BME280;64039;53.060;9.342;2022-12-07T14:58:07;100805.25;;;1.75;100.00
75460;BME280;64039;53.060;9.342;2022-12-07T15:00:37;100803.50;;;1.73;100.00
75460;BME280;64039;53.060;9.342;2022-12-07T15:03:02;100799.88;;;1.70;100.00